createdAt,value
2023-01-27T00:00:04.330Z,38.90
2023-01-27T00:00:37.003Z,36.40
2023-01-27T00:01:09.677Z,39.10
2023-01-27T00:01:42.360Z,38.40
2023-01-27T00:02:15.044Z,37.50
2023-01-27T00:02:47.809Z,35.90
2023-01-27T00:03:20.552Z,35.90
2023-01-27T00:03:53.253Z,40.10
2023-01-27T00:04:25.933Z,36.10
2023-01-27T00:04:58.582Z,34.50
2023-01-27T00:05:31.251Z,38.00
2023-01-27T00:06:03.931Z,36.30
2023-01-27T00:06:36.610Z,34.20
2023-01-27T00:07:09.274Z,36.10
2023-01-27T00:07:41.941Z,34.60
2023-01-27T00:08:14.616Z,37.30
2023-01-27T00:08:47.273Z,37.10
2023-01-27T00:09:19.951Z,36.50
2023-01-27T00:09:52.606Z,39.50
2023-01-27T00:10:25.267Z,40.90
2023-01-27T00:10:57.945Z,34.70
2023-01-27T00:11:30.619Z,39.80
2023-01-27T00:12:03.318Z,35.30
2023-01-27T00:12:36.014Z,36.60
2023-01-27T00:13:08.675Z,37.60
2023-01-27T00:13:41.354Z,39.70
2023-01-27T00:14:14.045Z,34.90
2023-01-27T00:14:46.718Z,39.30
2023-01-27T00:15:19.388Z,40.20
2023-01-27T00:15:52.245Z,42.90
2023-01-27T00:16:24.892Z,38.80
2023-01-27T00:16:57.556Z,43.20
2023-01-27T00:17:30.228Z,39.50
2023-01-27T00:18:02.898Z,37.50
2023-01-27T00:18:35.571Z,35.80
2023-01-27T00:19:08.248Z,40.00
2023-01-27T00:19:40.932Z,38.50
2023-01-27T00:20:13.871Z,37.50
2023-01-27T00:20:40.113Z,41.70
2023-01-27T00:21:12.780Z,42.00
2023-01-27T00:21:45.445Z,43.20
2023-01-27T00:22:18.115Z,37.50
2023-01-27T00:22:50.783Z,42.80
2023-01-27T00:23:23.449Z,41.20
2023-01-27T00:23:56.157Z,40.80
2023-01-27T00:24:28.835Z,39.00
2023-01-27T00:25:01.505Z,38.50
2023-01-27T00:25:34.184Z,40.10
2023-01-27T00:26:05.276Z,40.90
2023-01-27T00:26:37.938Z,40.60
2023-01-27T00:27:10.616Z,40.00
2023-01-27T00:27:43.292Z,38.60
2023-01-27T00:28:15.957Z,39.50
2023-01-27T00:28:48.627Z,37.40
2023-01-27T00:29:21.329Z,38.40
2023-01-27T00:29:54.008Z,39.50
2023-01-27T00:30:26.664Z,36.60
2023-01-27T00:30:59.497Z,39.00
2023-01-27T00:31:32.293Z,37.10
2023-01-27T00:32:04.955Z,37.40
2023-01-27T00:32:37.621Z,38.80
2023-01-27T00:33:10.294Z,35.00
2023-01-27T00:33:42.995Z,38.50
2023-01-27T00:34:15.675Z,36.60
2023-01-27T00:34:48.394Z,35.70
2023-01-27T00:35:21.032Z,38.50
2023-01-27T00:35:53.704Z,37.70
2023-01-27T00:36:26.369Z,42.80
2023-01-27T00:36:59.058Z,36.30
2023-01-27T00:37:31.718Z,45.20
2023-01-27T00:38:04.399Z,38.70
2023-01-27T00:38:37.080Z,37.50
2023-01-27T00:39:09.748Z,39.90
2023-01-27T00:39:42.441Z,41.90
2023-01-27T00:40:15.311Z,38.80
2023-01-27T00:40:48.006Z,42.90
2023-01-27T00:41:20.697Z,45.40
2023-01-27T00:41:53.360Z,45.60
2023-01-27T00:42:26.011Z,38.90
2023-01-27T00:42:58.676Z,43.40
2023-01-27T00:43:31.343Z,47.20
2023-01-27T00:44:04.006Z,45.70
2023-01-27T00:44:36.695Z,42.20
2023-01-27T00:45:09.393Z,44.90
2023-01-27T00:45:42.038Z,45.60
2023-01-27T00:46:14.744Z,45.80
2023-01-27T00:46:47.490Z,53.80
2023-01-27T00:47:20.163Z,47.40
2023-01-27T00:47:52.833Z,46.90
2023-01-27T00:48:25.507Z,47.00
2023-01-27T00:48:58.177Z,45.50
2023-01-27T00:49:30.853Z,45.70
2023-01-27T00:50:03.550Z,49.00
2023-01-27T00:50:36.197Z,48.20
2023-01-27T00:51:08.873Z,49.70
2023-01-27T00:51:41.556Z,50.00
2023-01-27T00:52:14.226Z,49.00
2023-01-27T00:52:46.907Z,48.30
2023-01-27T00:53:19.602Z,43.70
2023-01-27T00:53:52.259Z,46.40
2023-01-27T00:54:24.951Z,44.60
2023-01-27T00:54:57.623Z,44.50
2023-01-27T00:55:30.287Z,45.30
2023-01-27T00:56:02.963Z,45.00
2023-01-27T00:56:35.621Z,45.90
2023-01-27T00:57:08.296Z,46.70
2023-01-27T00:57:40.968Z,42.90
2023-01-27T00:58:13.638Z,45.40
2023-01-27T00:58:46.309Z,49.40
2023-01-27T00:59:18.969Z,46.60
2023-01-27T00:59:51.654Z,47.40
2023-01-27T01:00:24.328Z,53.80
2023-01-27T01:00:56.990Z,51.40
2023-01-27T01:01:29.747Z,47.80
2023-01-27T01:02:02.480Z,54.10
2023-01-27T01:02:35.185Z,47.90
2023-01-27T01:03:07.935Z,54.10
2023-01-27T01:03:40.604Z,50.50
2023-01-27T01:04:13.275Z,53.90
2023-01-27T01:04:45.951Z,50.10
2023-01-27T01:05:18.639Z,49.30
2023-01-27T01:05:51.299Z,45.90
2023-01-27T01:06:23.985Z,50.10
2023-01-27T01:06:56.677Z,55.20
2023-01-27T01:07:29.335Z,51.80
2023-01-27T01:08:02.015Z,49.10
2023-01-27T01:08:34.679Z,49.40
2023-01-27T01:09:07.347Z,54.40
2023-01-27T01:09:40.049Z,47.60
2023-01-27T01:10:13.101Z,50.20
2023-01-27T01:10:39.412Z,48.70
2023-01-27T01:11:12.095Z,47.20
2023-01-27T01:11:44.762Z,44.90
2023-01-27T01:12:17.418Z,49.30
2023-01-27T01:12:50.084Z,43.10
2023-01-27T01:13:22.749Z,47.50
2023-01-27T01:13:56.546Z,46.30
2023-01-27T01:14:22.975Z,53.80
2023-01-27T01:14:55.638Z,49.00
2023-01-27T01:15:28.307Z,48.40
2023-01-27T01:16:01.005Z,50.20
2023-01-27T01:16:33.664Z,50.70
2023-01-27T01:17:06.296Z,50.50
2023-01-27T01:17:38.960Z,48.50
2023-01-27T01:18:11.657Z,55.00
2023-01-27T01:18:44.326Z,51.20
2023-01-27T01:19:17.006Z,48.80
2023-01-27T01:19:49.705Z,51.40
2023-01-27T01:20:22.383Z,46.10
2023-01-27T01:20:55.025Z,45.30
2023-01-27T01:21:27.701Z,48.30
2023-01-27T01:22:00.373Z,50.90
2023-01-27T01:22:33.058Z,46.70
2023-01-27T01:23:05.722Z,49.80
2023-01-27T01:23:38.387Z,44.60
2023-01-27T01:24:11.112Z,43.40
2023-01-27T01:24:43.834Z,47.00
2023-01-27T01:25:16.501Z,45.20
2023-01-27T01:25:49.171Z,38.20
2023-01-27T01:26:21.841Z,44.70
2023-01-27T01:26:54.521Z,43.90
2023-01-27T01:27:27.190Z,45.20
2023-01-27T01:27:59.869Z,48.90
2023-01-27T01:28:32.558Z,42.20
2023-01-27T01:29:05.252Z,43.20
2023-01-27T01:29:37.928Z,42.60
2023-01-27T01:30:10.812Z,40.00
2023-01-27T01:30:43.645Z,41.10
2023-01-27T01:31:16.327Z,44.30
2023-01-27T01:31:49.016Z,40.10
2023-01-27T01:32:21.674Z,38.40
2023-01-27T01:32:54.336Z,35.60
2023-01-27T01:33:26.999Z,37.80
2023-01-27T01:33:59.683Z,43.20
2023-01-27T01:34:32.343Z,40.30
2023-01-27T01:35:05.013Z,40.00
2023-01-27T01:35:37.719Z,41.70
2023-01-27T01:36:10.358Z,36.30
2023-01-27T01:36:43.019Z,37.10
2023-01-27T01:37:15.690Z,36.30
2023-01-27T01:37:48.346Z,39.30
2023-01-27T01:38:21.017Z,38.20
2023-01-27T01:38:53.701Z,37.40
2023-01-27T01:39:26.381Z,43.80
2023-01-27T01:39:59.053Z,39.50
2023-01-27T01:40:31.733Z,39.00
2023-01-27T01:41:04.399Z,41.50
2023-01-27T01:41:37.069Z,38.10
2023-01-27T01:42:09.747Z,41.70
2023-01-27T01:42:42.409Z,44.60
2023-01-27T01:43:15.086Z,43.50
2023-01-27T01:43:47.760Z,42.60
2023-01-27T01:44:20.447Z,37.60
2023-01-27T01:44:53.138Z,38.60
2023-01-27T01:45:25.816Z,42.00
2023-01-27T01:45:58.488Z,40.50
2023-01-27T01:46:31.187Z,39.50
2023-01-27T01:47:03.832Z,40.10
2023-01-27T01:47:36.510Z,39.30
2023-01-27T01:48:09.173Z,39.50
2023-01-27T01:48:41.844Z,39.60
2023-01-27T01:49:14.506Z,39.30
2023-01-27T01:49:47.190Z,41.00
2023-01-27T01:50:19.856Z,41.90
2023-01-27T01:50:52.549Z,38.30
2023-01-27T01:51:25.196Z,41.00
2023-01-27T01:51:57.865Z,39.90
2023-01-27T01:52:30.532Z,36.90
2023-01-27T01:53:03.206Z,36.60
2023-01-27T01:53:35.882Z,38.80
2023-01-27T01:54:08.557Z,38.00
2023-01-27T01:54:41.247Z,34.40
2023-01-27T01:55:14.217Z,37.40
2023-01-27T01:55:40.531Z,34.70
2023-01-27T01:56:13.201Z,37.00
2023-01-27T01:56:45.871Z,35.90
2023-01-27T01:57:18.543Z,33.30
2023-01-27T01:57:51.210Z,32.10
2023-01-27T01:58:23.888Z,37.70
2023-01-27T01:58:56.554Z,35.00
2023-01-27T01:59:29.230Z,41.60
2023-01-27T02:00:01.961Z,37.80
2023-01-27T02:00:34.661Z,42.90
2023-01-27T02:01:07.381Z,36.10
2023-01-27T02:01:40.053Z,38.40
2023-01-27T02:02:12.758Z,40.20
2023-01-27T02:02:45.500Z,33.20
2023-01-27T02:03:18.180Z,33.70
2023-01-27T02:03:50.846Z,37.80
2023-01-27T02:04:23.531Z,34.60
2023-01-27T02:04:56.206Z,37.20
2023-01-27T02:05:28.898Z,36.40
2023-01-27T02:06:01.578Z,35.30
2023-01-27T02:06:34.240Z,35.00
2023-01-27T02:07:06.913Z,38.00
2023-01-27T02:07:39.583Z,40.60
2023-01-27T02:08:12.248Z,39.10
2023-01-27T02:08:44.930Z,41.70
2023-01-27T02:09:17.611Z,41.00
2023-01-27T02:09:50.287Z,40.80
2023-01-27T02:10:22.962Z,37.90
2023-01-27T02:10:55.640Z,39.00
2023-01-27T02:11:28.291Z,37.80
2023-01-27T02:12:00.960Z,36.40
2023-01-27T02:12:33.639Z,38.50
2023-01-27T02:13:06.294Z,35.70
2023-01-27T02:13:38.961Z,38.80
2023-01-27T02:14:11.633Z,38.20
2023-01-27T02:14:44.432Z,37.40
2023-01-27T02:15:17.134Z,39.60
2023-01-27T02:15:49.787Z,36.10
2023-01-27T02:16:22.478Z,38.50
2023-01-27T02:16:55.164Z,35.50
2023-01-27T02:17:27.802Z,35.50
2023-01-27T02:18:00.466Z,41.20
2023-01-27T02:18:33.137Z,39.00
2023-01-27T02:19:05.806Z,39.20
2023-01-27T02:19:38.578Z,39.70
2023-01-27T02:20:11.252Z,42.20
2023-01-27T02:20:43.922Z,43.80
2023-01-27T02:21:15.051Z,41.00
2023-01-27T02:21:49.541Z,39.50
2023-01-27T02:22:15.834Z,45.20
2023-01-27T02:22:48.512Z,42.70
2023-01-27T02:23:21.182Z,43.50
2023-01-27T02:23:53.908Z,42.90
2023-01-27T02:24:26.742Z,43.80
2023-01-27T02:24:59.542Z,42.00
2023-01-27T02:25:32.198Z,45.40
2023-01-27T02:26:04.870Z,42.10
2023-01-27T02:26:37.566Z,46.00
2023-01-27T02:27:10.215Z,39.90
2023-01-27T02:27:42.891Z,45.70
2023-01-27T02:28:15.589Z,45.30
2023-01-27T02:28:48.260Z,42.20
2023-01-27T02:29:20.940Z,39.90
2023-01-27T02:29:53.629Z,43.00
2023-01-27T02:30:24.690Z,43.20
2023-01-27T02:30:57.473Z,49.50
2023-01-27T02:31:30.397Z,43.70
2023-01-27T02:32:03.089Z,48.30
2023-01-27T02:32:35.745Z,45.90
2023-01-27T02:33:08.446Z,43.20
2023-01-27T02:33:41.118Z,41.40
2023-01-27T02:34:13.793Z,46.00
2023-01-27T02:34:46.496Z,44.80
2023-01-27T02:35:19.173Z,43.60
2023-01-27T02:35:51.848Z,46.10
2023-01-27T02:36:24.541Z,40.40
2023-01-27T02:36:57.198Z,44.30
2023-01-27T02:37:29.862Z,50.00
2023-01-27T02:38:02.529Z,46.50
2023-01-27T02:38:35.205Z,47.70
2023-01-27T02:39:07.874Z,45.80
2023-01-27T02:39:40.568Z,48.50
2023-01-27T02:40:13.255Z,46.20
2023-01-27T02:40:45.955Z,44.20
2023-01-27T02:41:18.595Z,43.50
2023-01-27T02:41:51.273Z,37.80
2023-01-27T02:42:23.968Z,43.20
2023-01-27T02:42:56.637Z,41.00
2023-01-27T02:43:29.322Z,42.70
2023-01-27T02:44:02.003Z,42.60
2023-01-27T02:44:34.667Z,36.70
2023-01-27T02:45:07.343Z,44.20
2023-01-27T02:45:40.037Z,42.70
2023-01-27T02:46:12.682Z,39.50
2023-01-27T02:46:45.345Z,38.20
2023-01-27T02:47:18.024Z,34.90
2023-01-27T02:47:50.692Z,37.30
2023-01-27T02:48:23.419Z,37.50
2023-01-27T02:48:56.072Z,38.90
2023-01-27T02:49:28.750Z,42.90
2023-01-27T02:50:01.420Z,34.20
2023-01-27T02:50:32.517Z,40.50
2023-01-27T02:51:05.183Z,34.90
2023-01-27T02:51:37.889Z,33.90
2023-01-27T02:52:10.532Z,35.20
2023-01-27T02:52:43.283Z,33.00
2023-01-27T02:53:15.956Z,38.20
2023-01-27T02:53:48.620Z,31.60
2023-01-27T02:54:21.307Z,37.60
2023-01-27T02:54:53.974Z,32.60
2023-01-27T02:55:26.657Z,32.90
2023-01-27T02:55:59.321Z,34.80
2023-01-27T02:56:32.003Z,35.40
2023-01-27T02:57:04.667Z,40.40
2023-01-27T02:57:37.336Z,33.70
2023-01-27T02:58:10.016Z,38.00
2023-01-27T02:58:42.680Z,36.10
2023-01-27T02:59:15.355Z,34.50
2023-01-27T02:59:48.051Z,34.10
2023-01-27T03:00:20.716Z,35.00
2023-01-27T03:00:51.817Z,34.70
2023-01-27T03:01:24.573Z,31.50
2023-01-27T03:01:57.220Z,37.70
2023-01-27T03:02:29.930Z,34.70
2023-01-27T03:03:02.566Z,40.50
2023-01-27T03:03:35.229Z,38.20
2023-01-27T03:04:07.909Z,32.60
2023-01-27T03:04:40.605Z,32.90
2023-01-27T03:05:13.634Z,31.10
2023-01-27T03:05:39.998Z,31.30
2023-01-27T03:06:12.667Z,33.80
2023-01-27T03:06:45.365Z,32.50
2023-01-27T03:07:18.027Z,27.20
2023-01-27T03:07:50.693Z,29.30
2023-01-27T03:08:23.363Z,27.10
2023-01-27T03:08:56.036Z,30.50
2023-01-27T03:09:28.732Z,30.70
2023-01-27T03:10:01.379Z,28.20
2023-01-27T03:10:34.062Z,29.10
2023-01-27T03:11:06.742Z,30.20
2023-01-27T03:11:39.426Z,28.20
2023-01-27T03:12:12.137Z,30.60
2023-01-27T03:12:44.817Z,27.00
2023-01-27T03:13:17.473Z,28.60
2023-01-27T03:13:50.154Z,26.70
2023-01-27T03:14:22.823Z,26.40
2023-01-27T03:14:55.488Z,28.00
2023-01-27T03:15:28.187Z,30.00
2023-01-27T03:16:00.928Z,30.00
2023-01-27T03:16:33.623Z,29.50
2023-01-27T03:17:06.308Z,30.10
2023-01-27T03:17:38.987Z,33.10
2023-01-27T03:18:10.055Z,28.50
2023-01-27T03:18:42.733Z,29.60
2023-01-27T03:19:15.412Z,30.20
2023-01-27T03:19:48.100Z,31.10
2023-01-27T03:20:20.766Z,29.90
2023-01-27T03:20:53.450Z,29.20
2023-01-27T03:21:26.110Z,34.00
2023-01-27T03:21:58.794Z,33.00
2023-01-27T03:22:31.450Z,35.50
2023-01-27T03:23:04.110Z,31.60
2023-01-27T03:23:36.777Z,30.50
2023-01-27T03:24:09.502Z,33.70
2023-01-27T03:24:42.214Z,34.20
2023-01-27T03:25:15.481Z,31.80
2023-01-27T03:25:41.722Z,34.20
2023-01-27T03:26:14.391Z,31.70
2023-01-27T03:26:47.064Z,28.60
2023-01-27T03:27:19.740Z,31.70
2023-01-27T03:27:52.423Z,30.00
2023-01-27T03:28:25.088Z,31.20
2023-01-27T03:28:57.764Z,27.30
2023-01-27T03:29:30.426Z,27.70
2023-01-27T03:30:03.130Z,30.30
2023-01-27T03:30:35.890Z,30.60
2023-01-27T03:31:08.671Z,29.20
2023-01-27T03:31:41.503Z,28.30
2023-01-27T03:32:14.174Z,29.50
2023-01-27T03:32:46.955Z,27.20
2023-01-27T03:33:19.615Z,24.80
2023-01-27T03:33:52.292Z,27.90
2023-01-27T03:34:24.967Z,25.40
2023-01-27T03:34:57.678Z,27.90
2023-01-27T03:35:30.485Z,27.20
2023-01-27T03:36:03.161Z,30.20
2023-01-27T03:36:35.840Z,29.50
2023-01-27T03:37:08.539Z,27.40
2023-01-27T03:37:41.175Z,29.60
2023-01-27T03:38:13.849Z,32.50
2023-01-27T03:38:46.521Z,27.70
2023-01-27T03:39:19.278Z,27.20
2023-01-27T03:39:52.021Z,28.70
2023-01-27T03:40:24.732Z,30.90
2023-01-27T03:40:57.383Z,28.70
2023-01-27T03:41:30.045Z,27.60
2023-01-27T03:42:02.713Z,29.00
2023-01-27T03:42:35.378Z,29.80
2023-01-27T03:43:08.059Z,28.10
2023-01-27T03:43:40.729Z,28.60
2023-01-27T03:44:13.402Z,29.40
2023-01-27T03:44:46.063Z,31.70
2023-01-27T03:45:18.728Z,28.70
2023-01-27T03:45:51.453Z,30.90
2023-01-27T03:46:24.266Z,28.40
2023-01-27T03:46:56.940Z,29.30
2023-01-27T03:47:29.609Z,28.20
2023-01-27T03:48:02.285Z,31.00
2023-01-27T03:48:34.953Z,27.00
2023-01-27T03:49:07.616Z,28.40
2023-01-27T03:49:40.287Z,28.00
2023-01-27T03:50:12.980Z,33.20
2023-01-27T03:50:45.666Z,26.80
2023-01-27T03:51:18.344Z,26.50
2023-01-27T03:51:51.003Z,28.50
2023-01-27T03:52:23.698Z,26.60
2023-01-27T03:52:56.341Z,30.10
2023-01-27T03:53:29.012Z,29.20
2023-01-27T03:54:01.693Z,28.70
2023-01-27T03:54:34.359Z,26.90
2023-01-27T03:55:07.038Z,31.80
2023-01-27T03:55:39.763Z,34.60
2023-01-27T03:56:12.417Z,33.30
2023-01-27T03:56:45.083Z,32.50
2023-01-27T03:57:17.766Z,30.20
2023-01-27T03:57:50.426Z,28.00
2023-01-27T03:58:23.090Z,30.90
2023-01-27T03:58:55.765Z,32.60
2023-01-27T03:59:28.430Z,30.70
2023-01-27T04:00:01.112Z,32.10
2023-01-27T04:00:33.790Z,31.40
2023-01-27T04:01:06.462Z,35.00
2023-01-27T04:01:39.185Z,35.10
2023-01-27T04:02:11.847Z,33.00
2023-01-27T04:02:44.625Z,34.70
2023-01-27T04:03:17.291Z,36.70
2023-01-27T04:03:49.973Z,33.70
2023-01-27T04:04:22.626Z,35.40
2023-01-27T04:04:55.321Z,34.40
2023-01-27T04:05:27.991Z,35.90
2023-01-27T04:06:00.653Z,37.90
2023-01-27T04:06:33.321Z,36.40
2023-01-27T04:07:06.008Z,39.10
2023-01-27T04:07:38.703Z,32.70
2023-01-27T04:08:11.405Z,33.70
2023-01-27T04:08:44.071Z,33.80
2023-01-27T04:09:16.739Z,37.50
2023-01-27T04:09:49.413Z,36.80
2023-01-27T04:10:22.101Z,38.10
2023-01-27T04:10:54.757Z,33.70
2023-01-27T04:11:27.440Z,36.90
2023-01-27T04:12:00.441Z,34.10
2023-01-27T04:12:26.747Z,35.90
2023-01-27T04:12:59.423Z,39.30
2023-01-27T04:13:32.112Z,41.00
2023-01-27T04:14:04.789Z,35.30
2023-01-27T04:14:37.442Z,42.50
2023-01-27T04:15:10.112Z,39.50
2023-01-27T04:15:42.817Z,34.10
2023-01-27T04:16:15.484Z,36.10
2023-01-27T04:16:48.137Z,34.50
2023-01-27T04:17:20.806Z,33.60
2023-01-27T04:17:53.473Z,33.10
2023-01-27T04:18:26.134Z,38.40
2023-01-27T04:18:58.796Z,33.70
2023-01-27T04:19:31.468Z,33.90
2023-01-27T04:20:04.140Z,35.50
2023-01-27T04:20:36.839Z,37.70
2023-01-27T04:21:09.544Z,33.70
2023-01-27T04:21:42.180Z,33.40
2023-01-27T04:22:14.846Z,35.90
2023-01-27T04:22:47.538Z,31.20
2023-01-27T04:23:20.186Z,30.00
2023-01-27T04:23:52.934Z,28.60
2023-01-27T04:24:25.746Z,36.20
2023-01-27T04:24:58.473Z,31.00
2023-01-27T04:25:29.563Z,32.70
2023-01-27T04:26:02.243Z,29.70
2023-01-27T04:26:34.923Z,26.70
2023-01-27T04:27:07.601Z,34.40
2023-01-27T04:27:40.269Z,34.70
2023-01-27T04:28:12.941Z,31.50
2023-01-27T04:28:45.610Z,30.30
2023-01-27T04:29:18.285Z,28.80
2023-01-27T04:29:50.962Z,28.00
2023-01-27T04:30:23.664Z,31.00
2023-01-27T04:30:56.411Z,29.80
2023-01-27T04:31:29.128Z,30.10
2023-01-27T04:32:01.867Z,29.80
2023-01-27T04:32:34.536Z,30.10
2023-01-27T04:33:07.235Z,28.50
2023-01-27T04:33:39.918Z,34.70
2023-01-27T04:34:12.582Z,28.00
2023-01-27T04:34:45.254Z,29.60
2023-01-27T04:35:18.195Z,31.30
2023-01-27T04:35:45.157Z,27.40
2023-01-27T04:36:17.838Z,29.40
2023-01-27T04:36:50.517Z,28.80
2023-01-27T04:37:23.184Z,30.60
2023-01-27T04:37:55.878Z,32.60
2023-01-27T04:38:28.516Z,30.90
2023-01-27T04:39:01.190Z,25.50
2023-01-27T04:39:33.954Z,29.10
2023-01-27T04:40:06.626Z,33.30
2023-01-27T04:40:39.340Z,31.10
2023-01-27T04:41:12.016Z,29.60
2023-01-27T04:41:44.678Z,24.80
2023-01-27T04:42:17.356Z,30.20
2023-01-27T04:42:50.022Z,27.20
2023-01-27T04:43:22.696Z,27.30
2023-01-27T04:43:55.358Z,31.30
2023-01-27T04:44:28.024Z,29.50
2023-01-27T04:45:00.695Z,28.70
2023-01-27T04:45:33.440Z,29.60
2023-01-27T04:46:06.176Z,27.50
2023-01-27T04:46:38.840Z,25.20
2023-01-27T04:47:11.517Z,30.50
2023-01-27T04:47:44.205Z,26.60
2023-01-27T04:48:10.841Z,25.10
2023-01-27T04:48:43.571Z,26.40
2023-01-27T04:49:16.266Z,32.30
2023-01-27T04:49:48.954Z,26.30
2023-01-27T04:50:21.634Z,26.30
2023-01-27T04:50:54.314Z,28.70
2023-01-27T04:51:26.997Z,28.50
2023-01-27T04:51:59.655Z,26.80
2023-01-27T04:52:32.327Z,27.90
2023-01-27T04:53:05.010Z,26.90
2023-01-27T04:53:37.663Z,27.70
2023-01-27T04:54:10.325Z,31.90
2023-01-27T04:54:43.003Z,30.80
2023-01-27T04:55:16.219Z,30.30
2023-01-27T04:55:42.544Z,32.60
2023-01-27T04:56:15.206Z,32.40
2023-01-27T04:56:47.888Z,30.10
2023-01-27T04:57:20.554Z,30.30
2023-01-27T04:57:53.219Z,31.70
2023-01-27T04:58:25.886Z,30.70
2023-01-27T04:58:58.555Z,35.20
2023-01-27T04:59:31.228Z,32.80
2023-01-27T05:00:03.897Z,36.20
2023-01-27T05:00:36.584Z,36.90
2023-01-27T05:01:09.261Z,29.50
2023-01-27T05:01:41.961Z,35.30
2023-01-27T05:02:14.694Z,35.30
2023-01-27T05:02:47.377Z,34.20
2023-01-27T05:03:20.110Z,34.80
2023-01-27T05:03:52.792Z,34.30
2023-01-27T05:04:25.462Z,33.60
2023-01-27T05:04:58.135Z,33.80
2023-01-27T05:05:30.818Z,33.90
2023-01-27T05:06:03.488Z,35.30
2023-01-27T05:06:36.167Z,33.30
2023-01-27T05:07:08.839Z,31.80
2023-01-27T05:07:41.515Z,32.70
2023-01-27T05:08:14.236Z,33.70
2023-01-27T05:08:46.879Z,36.60
2023-01-27T05:09:19.657Z,32.90
2023-01-27T05:09:52.360Z,31.60
2023-01-27T05:10:25.044Z,33.20
2023-01-27T05:10:57.719Z,32.50
2023-01-27T05:11:30.389Z,32.90
2023-01-27T05:12:03.063Z,33.90
2023-01-27T05:12:35.733Z,30.00
2023-01-27T05:13:06.819Z,29.80
2023-01-27T05:13:39.480Z,31.20
2023-01-27T05:14:12.172Z,31.60
2023-01-27T05:14:44.841Z,33.90
2023-01-27T05:15:17.639Z,32.80
2023-01-27T05:15:50.407Z,28.70
2023-01-27T05:16:23.097Z,33.60
2023-01-27T05:16:49.671Z,31.80
2023-01-27T05:17:22.349Z,33.30
2023-01-27T05:17:55.017Z,30.70
2023-01-27T05:18:27.685Z,31.10
2023-01-27T05:19:00.377Z,33.80
2023-01-27T05:19:33.025Z,33.10
2023-01-27T05:20:05.780Z,32.80
2023-01-27T05:20:38.477Z,32.60
2023-01-27T05:21:11.139Z,32.80
2023-01-27T05:21:43.969Z,34.90
2023-01-27T05:22:16.643Z,32.90
2023-01-27T05:22:49.324Z,33.60
2023-01-27T05:23:22.016Z,36.20
2023-01-27T05:23:54.731Z,34.70
2023-01-27T05:24:27.458Z,35.80
2023-01-27T05:25:00.150Z,37.70
2023-01-27T05:25:33.068Z,38.70
2023-01-27T05:26:05.842Z,34.70
2023-01-27T05:26:38.516Z,35.70
2023-01-27T05:27:11.236Z,34.60
2023-01-27T05:27:43.916Z,35.40
2023-01-27T05:28:16.583Z,38.50
2023-01-27T05:28:49.271Z,40.30
2023-01-27T05:29:21.934Z,31.20
2023-01-27T05:29:54.599Z,39.20
2023-01-27T05:30:27.284Z,34.00
2023-01-27T05:31:00.143Z,38.40
2023-01-27T05:31:26.676Z,37.80
2023-01-27T05:31:59.480Z,38.20
2023-01-27T05:32:32.217Z,39.90
2023-01-27T05:33:04.889Z,39.80
2023-01-27T05:33:37.578Z,37.80
2023-01-27T05:34:08.643Z,38.40
2023-01-27T05:34:41.319Z,37.60
2023-01-27T05:35:14.374Z,42.70
2023-01-27T05:35:40.712Z,42.70
2023-01-27T05:36:13.386Z,42.10
2023-01-27T05:36:46.064Z,42.20
2023-01-27T05:37:18.731Z,39.20
2023-01-27T05:37:51.400Z,38.00
2023-01-27T05:38:24.075Z,37.90
2023-01-27T05:38:56.768Z,38.20
2023-01-27T05:39:29.421Z,38.90
2023-01-27T05:40:02.115Z,37.00
2023-01-27T05:40:34.793Z,39.90
2023-01-27T05:41:07.465Z,42.40
2023-01-27T05:41:40.120Z,37.70
2023-01-27T05:42:12.794Z,41.70
2023-01-27T05:42:45.457Z,40.10
2023-01-27T05:43:18.141Z,43.80
2023-01-27T05:43:50.983Z,44.10
2023-01-27T05:44:23.646Z,46.70
2023-01-27T05:44:56.332Z,43.60
2023-01-27T05:45:29.017Z,43.10
2023-01-27T05:46:01.871Z,44.40
2023-01-27T05:46:34.621Z,39.40
2023-01-27T05:47:07.284Z,41.30
2023-01-27T05:47:39.954Z,46.60
2023-01-27T05:48:12.638Z,44.60
2023-01-27T05:48:45.320Z,39.80
2023-01-27T05:49:17.993Z,42.80
2023-01-27T05:49:50.676Z,44.60
2023-01-27T05:50:23.365Z,43.40
2023-01-27T05:50:56.067Z,47.70
2023-01-27T05:51:28.719Z,43.20
2023-01-27T05:52:01.400Z,46.80
2023-01-27T05:52:34.059Z,42.60
2023-01-27T05:53:06.754Z,44.90
2023-01-27T05:53:39.404Z,47.60
2023-01-27T05:54:12.109Z,52.90
2023-01-27T05:54:44.749Z,47.40
2023-01-27T05:55:16.073Z,46.80
2023-01-27T05:55:42.343Z,47.40
2023-01-27T05:56:15.022Z,45.50
2023-01-27T05:56:47.703Z,48.70
2023-01-27T05:57:20.373Z,47.40
2023-01-27T05:57:53.046Z,44.90
2023-01-27T05:58:25.716Z,46.70
2023-01-27T05:58:58.387Z,42.70
2023-01-27T05:59:31.066Z,43.00
2023-01-27T06:00:03.722Z,43.60
2023-01-27T06:00:36.416Z,44.60
2023-01-27T06:01:09.112Z,43.40
2023-01-27T06:01:41.836Z,42.70
2023-01-27T06:02:14.569Z,43.80
2023-01-27T06:02:47.313Z,43.90
2023-01-27T06:03:19.973Z,42.10
2023-01-27T06:03:52.664Z,40.80
2023-01-27T06:04:25.330Z,36.30
2023-01-27T06:04:58.000Z,40.70
2023-01-27T06:05:30.699Z,37.90
2023-01-27T06:06:03.370Z,39.10
2023-01-27T06:06:36.048Z,38.90
2023-01-27T06:07:08.741Z,38.70
2023-01-27T06:07:41.400Z,38.50
2023-01-27T06:08:14.075Z,41.50
2023-01-27T06:08:45.165Z,36.60
2023-01-27T06:09:17.864Z,36.30
2023-01-27T06:09:50.536Z,40.70
2023-01-27T06:10:23.227Z,38.60
2023-01-27T06:10:55.893Z,34.00
2023-01-27T06:11:28.584Z,35.90
2023-01-27T06:12:01.224Z,38.30
2023-01-27T06:12:33.895Z,36.70
2023-01-27T06:13:06.559Z,36.00
2023-01-27T06:13:39.313Z,35.10
2023-01-27T06:14:11.972Z,35.10
2023-01-27T06:14:44.627Z,34.90
2023-01-27T06:15:17.298Z,32.20
2023-01-27T06:15:49.981Z,37.50
2023-01-27T06:16:22.693Z,33.70
2023-01-27T06:16:55.339Z,34.00
2023-01-27T06:17:28.021Z,34.90
2023-01-27T06:18:00.689Z,32.40
2023-01-27T06:18:33.356Z,36.00
2023-01-27T06:19:06.022Z,36.80
2023-01-27T06:19:38.730Z,32.70
2023-01-27T06:20:11.412Z,36.90
2023-01-27T06:20:44.093Z,37.80
2023-01-27T06:21:16.763Z,36.30
2023-01-27T06:21:49.508Z,32.70
2023-01-27T06:22:22.233Z,37.30
2023-01-27T06:22:54.919Z,31.80
2023-01-27T06:23:27.589Z,33.10
2023-01-27T06:24:00.319Z,32.20
2023-01-27T06:24:33.046Z,33.60
2023-01-27T06:25:05.682Z,33.80
2023-01-27T06:25:38.386Z,34.50
2023-01-27T06:26:09.459Z,37.70
2023-01-27T06:26:42.126Z,39.30
2023-01-27T06:27:14.816Z,40.90
2023-01-27T06:27:47.479Z,46.30
2023-01-27T06:28:28.624Z,47.00
2023-01-27T06:28:52.220Z,41.50
2023-01-27T06:29:18.393Z,37.20
2023-01-27T06:29:51.057Z,39.40
2023-01-27T06:30:23.747Z,39.10
2023-01-27T06:30:56.571Z,39.50
2023-01-27T06:31:29.401Z,41.40
2023-01-27T06:32:02.164Z,41.30
2023-01-27T06:32:34.834Z,41.30
2023-01-27T06:33:07.505Z,41.30
2023-01-27T06:33:40.182Z,41.80
2023-01-27T06:34:12.853Z,40.70
2023-01-27T06:34:45.528Z,38.50
2023-01-27T06:35:18.199Z,38.90
2023-01-27T06:35:50.954Z,38.70
2023-01-27T06:36:23.630Z,41.70
2023-01-27T06:36:56.294Z,36.30
2023-01-27T06:37:28.959Z,36.30
2023-01-27T06:38:01.621Z,44.50
2023-01-27T06:38:32.722Z,38.80
2023-01-27T06:39:05.389Z,41.10
2023-01-27T06:39:38.117Z,35.80
2023-01-27T06:40:11.041Z,34.60
2023-01-27T06:40:37.287Z,37.70
2023-01-27T06:41:09.954Z,39.80
2023-01-27T06:41:42.632Z,33.60
2023-01-27T06:42:15.317Z,39.60
2023-01-27T06:42:47.998Z,35.50
2023-01-27T06:43:20.687Z,38.70
2023-01-27T06:43:53.349Z,38.20
2023-01-27T06:44:26.016Z,35.00
2023-01-27T06:44:58.680Z,37.80
2023-01-27T06:45:31.363Z,38.60
2023-01-27T06:46:05.876Z,37.60
2023-01-27T06:46:32.344Z,37.60
2023-01-27T06:47:05.027Z,37.00
2023-01-27T06:47:36.103Z,35.50
2023-01-27T06:48:08.900Z,40.50
2023-01-27T06:48:41.533Z,40.20
2023-01-27T06:49:14.469Z,38.00
2023-01-27T06:49:47.138Z,39.70
2023-01-27T06:50:19.847Z,35.50
2023-01-27T06:50:50.921Z,37.40
2023-01-27T06:51:23.601Z,34.80
2023-01-27T06:51:56.277Z,41.50
2023-01-27T06:52:29.148Z,36.50
2023-01-27T06:53:01.822Z,38.20
2023-01-27T06:53:34.496Z,35.90
2023-01-27T06:54:07.283Z,37.20
2023-01-27T06:54:39.953Z,43.10
2023-01-27T06:55:12.636Z,36.00
2023-01-27T06:55:45.306Z,34.00
2023-01-27T06:56:17.976Z,36.50
2023-01-27T06:56:50.663Z,35.10
2023-01-27T06:57:23.327Z,36.50
2023-01-27T06:57:56.019Z,30.80
2023-01-27T06:58:28.690Z,37.80